Time;durP1;ratioP1;P1;durP2;ratioP2;P2;SDS_P1;SDS_P2;PMS_P1;PMS_P2;Temp;Humidity;BMP_temperature;BMP_pressure;BME280_temperature;BME280_humidity;BME280_pressure;Samples;Min_cycle;Max_cycle;Signal;HPM_P1;HPM_P2
2021/06/23 02:26:33;;;;;;;7.65;5.95;;;14.50;99.90;;;;;;1248043;22;21581;31
2021/06/23 02:34:42;;;;;;;8.70;6.10;;;14.50;99.90;;;;;;3571482;40;20217;-83
2021/06/23 02:39:47;;;;;;;9.23;6.53;;;14.50;99.90;;;;;;3571472;39;20251;-83
2021/06/23 02:42:15;;;;;;;10.75;6.90;;;14.30;99.90;;;;;;3553747;40;20245;-84
2021/06/23 02:52:47;;;;;;;10.15;6.75;;;14.50;99.90;;;;;;1247699;22;21704;31
2021/06/23 02:55:24;;;;;;;15.90;7.10;;;14.70;99.90;;;;;;3602369;22;20240;-85
2021/06/23 03:11:31;;;;;;;7.97;5.63;;;14.60;99.90;;;;;;3613543;40;20214;-88
2021/06/23 03:33:23;;;;;;;9.45;5.57;;;14.20;99.90;;;;;;3603125;40;20250;-86
2021/06/23 03:38:57;;;;;;;7.90;5.47;;;14.00;99.90;;;;;;3603117;40;20222;-87
2021/06/23 03:44:32;;;;;;;6.45;5.78;;;14.00;99.90;;;;;;1216388;22;21781;-88
2021/06/23 03:52:28;;;;;;;13.85;7.85;;;14.30;99.90;;;;;;3613252;40;20218;-86
2021/06/23 04:03:48;;;;;;;10.45;5.95;;;14.40;99.90;;;;;;1211339;22;21683;-89
2021/06/23 04:12:05;;;;;;;5.80;4.88;;;14.60;99.90;;;;;;3613091;40;20250;-88
2021/06/23 04:17:26;;;;;;;15.77;6.43;;;14.40;99.90;;;;;;3614090;39;20222;-88
2021/06/23 04:33:51;;;;;;;9.90;6.45;;;14.90;99.90;;;;;;1323335;22;20393;-89
2021/06/23 04:39:02;;;;;;;10.60;6.15;;;14.80;99.90;;;;;;3543002;40;20227;-87
2021/06/23 04:44:36;;;;;;;10.38;6.85;;;14.90;99.90;;;;;;3620012;22;21300;-89
2021/06/23 04:55:17;;;;;;;9.73;6.03;;;15.40;99.90;;;;;;1377139;22;20598;-88
2021/06/23 05:00:27;;;;;;;9.65;5.38;;;15.20;99.90;;;;;;3604343;40;20219;-88
2021/06/23 05:02:54;;;;;;;7.68;5.28;;;15.20;99.90;;;;;;3585270;40;20223;-88
2021/06/23 05:08:11;;;;;;;7.38;5.20;;;14.90;99.90;;;;;;3562278;40;20229;-87
2021/06/23 05:13:20;;;;;;;6.70;4.50;;;14.90;99.90;;;;;;3614387;40;20226;-88
2021/06/23 05:32:18;;;;;;;11.30;5.53;;;15.40;99.90;;;;;;3614287;40;20218;-88
2021/06/23 05:53:56;;;;;;;11.38;5.28;;;16.00;99.90;;;;;;3614182;39;20222;-87
2021/06/23 06:02:06;;;;;;;8.13;4.78;;;16.20;99.90;;;;;;3614089;40;20456;-88
2021/06/23 06:29:31;;;;;;;8.50;5.47;;;16.60;99.90;;;;;;3606667;39;20456;-39
2021/06/23 06:31:58;;;;;;;7.10;4.30;;;16.60;99.90;;;;;;3608095;39;20247;-39
2021/06/23 06:34:25;;;;;;;9.45;5.57;;;16.80;99.90;;;;;;3598354;39;20233;-41
2021/06/23 06:36:52;;;;;;;10.27;4.30;;;16.40;99.90;;;;;;3598659;40;20257;-43
2021/06/23 06:39:19;;;;;;;9.90;5.00;;;16.60;99.90;;;;;;3599712;39;20249;-40
2021/06/23 06:41:46;;;;;;;8.20;4.38;;;17.00;99.90;;;;;;3642055;22;20267;-42
2021/06/23 06:44:13;;;;;;;7.10;4.47;;;17.00;99.90;;;;;;3580051;39;20597;-42
2021/06/23 06:46:42;;;;;;;12.70;5.53;;;16.60;99.90;;;;;;3576387;40;20324;-44
2021/06/23 06:49:09;;;;;;;7.20;3.45;;;16.60;99.90;;;;;;3576531;40;20243;-42
2021/06/23 06:51:36;;;;;;;7.15;3.90;;;16.60;99.90;;;;;;3585759;39;20285;-43
2021/06/23 06:54:03;;;;;;;8.38;3.67;;;16.00;99.90;;;;;;3620993;39;20596;-41
2021/06/23 06:56:30;;;;;;;13.57;6.13;;;15.90;99.90;;;;;;3624038;39;20251;-45
2021/06/23 06:58:57;;;;;;;14.63;9.02;;;16.20;99.90;;;;;;3606866;39;20244;-42
2021/06/23 07:01:24;;;;;;;5.80;3.78;;;16.50;99.90;;;;;;3615726;39;20431;-44
2021/06/23 07:03:53;;;;;;;10.13;4.50;;;16.60;99.90;;;;;;3617141;39;20631;-42
2021/06/23 07:06:20;;;;;;;10.80;4.57;;;16.80;99.90;;;;;;3604058;39;20242;-42
2021/06/23 07:08:47;;;;;;;16.77;9.90;;;17.10;99.90;;;;;;3616524;39;20244;-44
2021/06/23 07:11:15;;;;;;;9.52;4.03;;;17.10;99.90;;;;;;3627290;39;20312;-43
2021/06/23 07:13:42;;;;;;;8.27;3.45;;;16.90;99.90;;;;;;3627861;39;20235;-43
2021/06/23 07:16:09;;;;;;;6.72;3.83;;;17.00;99.90;;;;;;3618640;39;20236;-42
2021/06/23 07:18:36;;;;;;;9.65;4.82;;;16.90;99.90;;;;;;3621749;39;20706;-42
2021/06/23 07:21:05;;;;;;;4.82;3.10;;;17.10;99.90;;;;;;3622382;39;20250;-42
2021/06/23 07:23:32;;;;;;;6.28;3.92;;;17.40;99.90;;;;;;3604514;39;20241;-43
2021/06/23 07:25:59;;;;;;;8.60;4.07;;;17.50;99.90;;;;;;3617417;39;20271;-41
2021/06/23 07:28:40;;;;;;;7.40;4.32;;;17.40;99.90;;;;;;3616984;39;20244;-43
2021/06/23 07:31:09;;;;;;;8.63;4.43;;;17.30;99.90;;;;;;3627028;39;20333;-43
2021/06/23 07:33:37;;;;;;;8.57;3.35;;;17.00;99.90;;;;;;3627000;39;20241;-42
2021/06/23 07:38:53;;;;;;;8.82;3.88;;;16.40;99.90;;;;;;3627154;39;20287;-41
2021/06/23 07:41:20;;;;;;;9.48;3.85;;;16.40;99.90;;;;;;3627462;39;20252;-41
2021/06/23 07:43:47;;;;;;;9.48;4.13;;;16.90;99.90;;;;;;3618670;39;20261;-42
2021/06/23 07:46:15;;;;;;;7.68;4.32;;;17.70;99.90;;;;;;3609230;39;20244;-43
2021/06/23 07:48:42;;;;;;;7.88;4.53;;;17.80;99.90;;;;;;3618573;39;20272;-44
2021/06/23 07:51:12;;;;;;;11.73;6.03;;;18.40;99.90;;;;;;3627936;39;20507;-42
2021/06/23 07:53:59;;;;;;;8.38;4.55;;;18.50;99.90;;;;;;3626941;39;20598;-42
2021/06/23 07:56:33;;;;;;;13.40;5.32;;;18.80;99.90;;;;;;3620676;39;20251;-42
2021/06/23 08:02:37;;;;;;;10.43;4.97;;;19.00;99.90;;;;;;3629980;39;20284;-42
2021/06/23 08:08:28;;;;;;;10.93;4.70;;;18.90;99.90;;;;;;3582989;39;20348;-43
2021/06/23 08:10:57;;;;;;;9.20;5.03;;;18.70;99.90;;;;;;3615426;39;20272;-43
2021/06/23 08:13:24;;;;;;;9.25;4.72;;;18.90;99.90;;;;;;3618350;39;20285;-41
2021/06/23 08:15:51;;;;;;;9.20;5.82;;;18.60;99.90;;;;;;3624731;39;20293;-43
2021/06/23 08:18:20;;;;;;;11.10;4.28;;;18.80;99.90;;;;;;3624075;39;20284;-40
2021/06/23 08:20:49;;;;;;;10.73;4.65;;;19.00;99.90;;;;;;3622734;39;20601;-43
2021/06/23 08:23:17;;;;;;;6.75;4.32;;;19.10;99.90;;;;;;3623237;39;20286;-41
2021/06/23 08:25:46;;;;;;;7.57;4.00;;;18.50;99.90;;;;;;3621664;39;20240;-42
2021/06/23 08:28:13;;;;;;;13.15;6.18;;;18.50;99.90;;;;;;3622544;39;20236;-44
2021/06/23 08:30:40;;;;;;;11.65;4.95;;;18.90;99.90;;;;;;3622820;39;20308;-43
2021/06/23 08:33:07;;;;;;;8.93;4.18;;;19.30;99.90;;;;;;3623560;39;20321;-42
2021/06/23 08:35:34;;;;;;;10.10;5.00;;;19.30;99.90;;;;;;3622518;39;20714;-44
2021/06/23 08:38:02;;;;;;;9.95;5.10;;;19.00;99.90;;;;;;3623827;39;20643;-41
2021/06/23 08:40:29;;;;;;;8.35;5.30;;;19.30;99.90;;;;;;3622040;39;20240;-42
2021/06/23 08:42:58;;;;;;;9.00;5.10;;;19.40;99.90;;;;;;3623074;39;20228;-42
2021/06/23 08:45:25;;;;;;;8.18;3.90;;;18.70;99.90;;;;;;3601645;39;20272;-41
2021/06/23 08:47:52;;;;;;;13.38;5.32;;;18.60;99.90;;;;;;3612348;39;20612;-42
2021/06/23 08:50:21;;;;;;;8.02;4.60;;;18.90;99.90;;;;;;3615598;39;20244;-42
2021/06/23 08:52:49;;;;;;;14.05;5.10;;;19.20;99.90;;;;;;3618330;39;20615;-41
2021/06/23 08:55:19;;;;;;;12.13;4.15;;;19.70;99.90;;;;;;3619519;39;20241;-41
2021/06/23 08:57:48;;;;;;;7.20;4.07;;;19.70;99.90;;;;;;3621306;39;20245;-42
2021/06/23 09:00:22;;;;;;;8.52;5.05;;;19.40;99.90;;;;;;3618130;39;20301;-42
2021/06/23 09:02:49;;;;;;;11.63;4.20;;;19.50;99.90;;;;;;3629192;39;20247;-41
2021/06/23 09:05:18;;;;;;;13.70;4.60;;;19.00;99.90;;;;;;3623446;39;20236;-43
2021/06/23 09:07:48;;;;;;;10.57;4.50;;;18.90;99.90;;;;;;3623217;39;20539;-42
2021/06/23 09:10:36;;;;;;;10.18;4.55;;;19.20;99.90;;;;;;3630994;39;20247;-42
2021/06/23 09:13:18;;;;;;;13.05;5.28;;;19.80;99.90;;;;;;3620182;39;20270;-42
2021/06/23 09:15:52;;;;;;;7.53;4.15;;;19.80;99.90;;;;;;3619370;39;20249;-42
2021/06/23 09:18:21;;;;;;;8.73;4.60;;;19.60;99.90;;;;;;3621416;39;20612;-42
2021/06/23 09:20:51;;;;;;;6.82;4.75;;;19.80;99.90;;;;;;3616178;39;20287;-41
2021/06/23 09:23:19;;;;;;;9.43;5.32;;;19.20;99.90;;;;;;3604222;39;20252;-42
2021/06/23 09:25:46;;;;;;;7.55;4.65;;;19.30;99.90;;;;;;3615299;39;20244;-42
2021/06/23 09:28:16;;;;;;;10.25;5.35;;;18.70;99.90;;;;;;3617145;39;21665;-41
2021/06/23 09:30:44;;;;;;;10.18;5.40;;;19.20;99.90;;;;;;3616782;39;20318;-44
2021/06/23 09:33:15;;;;;;;8.95;4.07;;;19.50;99.90;;;;;;3620165;39;20240;-42
2021/06/23 09:35:45;;;;;;;7.30;3.80;;;19.80;99.90;;;;;;3617481;39;20255;-43
2021/06/23 09:38:37;;;;;;;11.57;4.18;;;19.80;99.90;;;;;;3619309;39;20321;-41
2021/06/23 09:41:06;;;;;;;9.38;3.70;;;19.60;99.90;;;;;;3621352;39;20239;-41
2021/06/23 09:43:39;;;;;;;8.60;4.30;;;18.80;99.90;;;;;;3619339;39;20326;-42
2021/06/23 09:46:18;;;;;;;8.70;4.10;;;18.80;99.90;;;;;;3616923;39;20236;-42
2021/06/23 09:48:48;;;;;;;10.27;4.32;;;19.60;99.90;;;;;;3627378;39;20243;-42
2021/06/23 09:51:17;;;;;;;8.18;3.38;;;19.80;99.90;;;;;;3627580;39;20236;-42
2021/06/23 09:53:45;;;;;;;8.30;3.70;;;19.40;99.90;;;;;;3619520;39;20247;-41
2021/06/23 09:56:33;;;;;;;6.40;3.45;;;19.80;99.90;;;;;;3619122;39;20719;-42
2021/06/23 09:59:00;;;;;;;10.75;3.58;;;20.00;99.90;;;;;;3618589;39;20259;-42
2021/06/23 10:01:29;;;;;;;9.05;3.75;;;19.90;99.90;;;;;;3630290;39;20243;-46
2021/06/23 10:04:05;;;;;;;6.47;3.08;;;19.90;99.90;;;;;;3621151;39;20236;-42
2021/06/23 10:06:33;;;;;;;11.75;4.40;;;20.00;99.90;;;;;;3615458;39;20237;-41
2021/06/23 10:09:21;;;;;;;11.02;3.90;;;20.50;99.90;;;;;;3615567;39;20345;-43
2021/06/23 10:11:51;;;;;;;14.20;4.07;;;20.30;99.90;;;;;;3617927;39;20280;-41
2021/06/23 10:14:18;;;;;;;10.68;3.85;;;19.60;99.90;;;;;;3616959;39;20250;-42
2021/06/23 10:16:48;;;;;;;11.07;4.22;;;19.50;99.90;;;;;;3618882;39;20240;-41
2021/06/23 10:19:17;;;;;;;4.95;3.58;;;20.10;99.90;;;;;;3614139;39;20253;-41
2021/06/23 10:21:44;;;;;;;4.65;3.20;;;20.40;99.90;;;;;;3616873;39;20325;-42
2021/06/23 10:24:13;;;;;;;10.32;4.15;;;19.90;99.90;;;;;;3617125;39;20275;-41
2021/06/23 10:26:46;;;;;;;9.88;4.15;;;19.30;99.90;;;;;;3618332;39;20313;-40
2021/06/23 10:29:15;;;;;;;11.23;4.50;;;19.20;99.90;;;;;;3613953;39;20237;-41
2021/06/23 10:31:43;;;;;;;5.00;3.33;;;19.40;99.90;;;;;;3616357;39;20249;-42
2021/06/23 10:34:10;;;;;;;10.50;4.05;;;19.50;99.90;;;;;;3617914;39;20507;-40
2021/06/23 10:36:39;;;;;;;8.05;4.65;;;19.40;99.90;;;;;;3616627;39;20274;-41
2021/06/23 10:39:07;;;;;;;6.03;4.50;;;20.00;99.90;;;;;;3613294;39;20260;-41
2021/06/23 10:41:39;;;;;;;8.85;4.22;;;20.00;99.90;;;;;;3620422;39;20276;-41
2021/06/23 10:44:23;;;;;;;15.18;5.60;;;19.90;99.90;;;;;;3611929;39;20247;-41
2021/06/23 10:46:52;;;;;;;10.60;4.60;;;20.00;99.90;;;;;;3624597;39;20277;-41
2021/06/23 10:49:39;;;;;;;9.10;3.88;;;19.90;99.90;;;;;;3624397;39;20526;-42
2021/06/23 10:52:33;;;;;;;6.65;4.30;;;19.60;99.90;;;;;;3624034;39;20243;-42
2021/06/23 10:55:01;;;;;;;12.20;5.45;;;19.70;99.90;;;;;;3618273;39;20246;-44
2021/06/23 10:57:30;;;;;;;9.18;4.07;;;20.00;99.90;;;;;;3622461;39;20267;-41
2021/06/23 10:59:58;;;;;;;8.40;4.30;;;20.50;99.90;;;;;;3621803;39;20271;-44
2021/06/23 11:02:31;;;;;;;8.80;4.93;;;21.10;99.90;;;;;;3623767;39;20228;-45
2021/06/23 11:05:12;;;;;;;11.73;5.00;;;20.90;99.90;;;;;;3621701;39;20231;-41
2021/06/23 11:07:43;;;;;;;12.93;4.40;;;20.50;99.90;;;;;;3622472;39;20492;-40
2021/06/23 11:10:28;;;;;;;8.77;5.13;;;20.70;99.90;;;;;;3622984;39;20232;-42
2021/06/23 11:12:57;;;;;;;12.48;4.10;;;20.30;99.90;;;;;;3623161;39;20279;-42
2021/06/23 11:15:34;;;;;;;8.68;5.65;;;20.40;99.90;;;;;;3625714;39;20614;-42
2021/06/23 11:18:20;;;;;;;7.15;5.28;;;20.60;99.90;;;;;;3614535;39;20364;-42
2021/06/23 11:20:49;;;;;;;8.02;4.50;;;21.50;99.90;;;;;;3621189;39;20233;-42
2021/06/23 11:23:50;;;;;;;9.63;5.38;;;20.70;99.90;;;;;;3619807;39;20232;-44
2021/06/23 11:26:46;;;;;;;12.45;5.88;;;21.30;99.90;;;;;;3618703;39;20238;-42
2021/06/23 11:29:31;;;;;;;9.15;5.75;;;21.00;99.90;;;;;;3621815;39;20276;-42
2021/06/23 11:32:05;;;;;;;7.65;5.32;;;20.50;99.90;;;;;;3626418;39;20563;-40
2021/06/23 11:34:44;;;;;;;12.27;5.82;;;20.50;99.90;;;;;;3627611;39;20320;-41
2021/06/23 11:37:14;;;;;;;9.75;6.80;;;20.50;99.90;;;;;;3621401;39;20527;-41
2021/06/23 11:39:43;;;;;;;10.00;6.32;;;20.40;99.90;;;;;;3626882;39;20320;-44
2021/06/23 11:42:11;;;;;;;15.85;6.32;;;21.20;99.90;;;;;;3619629;39;20309;-43
2021/06/23 11:44:39;;;;;;;12.73;6.30;;;21.40;99.90;;;;;;3628555;39;20250;-42
2021/06/23 11:47:07;;;;;;;13.05;6.97;;;21.40;99.90;;;;;;3617848;39;20236;-42
2021/06/23 11:49:36;;;;;;;10.80;6.32;;;21.00;99.90;;;;;;3616371;39;20298;-42
2021/06/23 11:52:05;;;;;;;9.20;6.40;;;21.00;99.90;;;;;;3628267;39;20547;-42
2021/06/23 11:54:32;;;;;;;10.93;7.38;;;21.50;99.90;;;;;;3623678;39;20236;-42
2021/06/23 11:57:01;;;;;;;13.85;7.43;;;22.10;99.90;;;;;;3613698;39;20245;-43
2021/06/23 11:59:28;;;;;;;12.10;6.85;;;22.10;99.90;;;;;;3612349;39;20325;-42
2021/06/23 12:01:55;;;;;;;14.35;7.93;;;22.30;99.90;;;;;;3608150;39;20251;-44
2021/06/23 12:04:22;;;;;;;10.38;6.95;;;21.90;99.90;;;;;;3621235;39;20239;-42
2021/06/23 12:06:49;;;;;;;10.02;6.50;;;21.60;99.90;;;;;;3617840;39;20242;-43
2021/06/23 12:09:16;;;;;;;9.15;6.55;;;21.70;99.90;;;;;;3622790;39;20239;-43
2021/06/23 12:11:44;;;;;;;9.93;7.07;;;22.10;99.90;;;;;;3627360;39;20300;-43
2021/06/23 12:14:12;;;;;;;8.93;6.82;;;22.30;99.90;;;;;;3618652;39;20297;-42
2021/06/23 12:16:39;;;;;;;12.10;6.45;;;21.40;99.90;;;;;;3626428;39;20245;-42
2021/06/23 12:19:06;;;;;;;17.77;7.93;;;21.20;99.90;;;;;;3617801;39;20478;-42
2021/06/23 12:21:34;;;;;;;8.70;5.93;;;21.10;99.90;;;;;;3618697;39;20260;-42
2021/06/23 12:24:01;;;;;;;11.65;5.82;;;21.30;99.90;;;;;;3625104;39;20243;-43
2021/06/23 12:26:28;;;;;;;14.88;5.97;;;22.00;99.90;;;;;;3622951;39;20619;-43
2021/06/23 12:28:55;;;;;;;9.90;5.65;;;22.60;99.90;;;;;;3607980;39;20244;-43
2021/06/23 12:31:24;;;;;;;11.35;6.70;;;22.80;99.90;;;;;;3617693;39;20228;-41
2021/06/23 12:33:51;;;;;;;9.40;6.50;;;23.10;99.90;;;;;;3617489;39;20314;-41
2021/06/23 12:36:18;;;;;;;17.10;7.32;;;23.00;99.90;;;;;;3617988;39;20495;-43
2021/06/23 12:38:45;;;;;;;12.32;6.35;;;21.30;99.90;;;;;;3623057;39;20642;-42
2021/06/23 12:41:12;;;;;;;10.02;6.68;;;21.00;99.90;;;;;;3614665;39;20273;-44
2021/06/23 12:43:39;;;;;;;8.55;6.15;;;20.90;99.90;;;;;;3592122;22;20509;-40
2021/06/23 12:46:07;;;;;;;9.98;6.90;;;20.90;99.90;;;;;;3548970;40;20249;-43
2021/06/23 12:48:37;;;;;;;8.80;6.93;;;21.10;99.90;;;;;;3553388;40;20281;-40
2021/06/23 12:51:04;;;;;;;10.93;6.50;;;22.00;99.90;;;;;;3552103;40;20632;-42
2021/06/23 12:57:00;;;;;;;12.00;7.72;;;22.60;99.90;;;;;;3567013;40;20566;-41
2021/06/23 12:59:29;;;;;;;12.02;7.53;;;22.90;99.90;;;;;;3549335;40;20249;-42
2021/06/23 13:01:57;;;;;;;8.88;6.03;;;21.90;99.90;;;;;;3549996;40;20273;-42
2021/06/23 13:04:25;;;;;;;14.43;6.45;;;21.60;99.90;;;;;;3549313;40;20245;-41
2021/06/23 13:06:53;;;;;;;14.43;8.18;;;21.80;99.90;;;;;;3549788;40;20233;-41
2021/06/23 13:09:20;;;;;;;16.02;7.82;;;22.00;99.90;;;;;;3550387;40;20247;-41
2021/06/23 13:11:48;;;;;;;13.30;7.10;;;21.90;99.90;;;;;;3553503;40;20659;-41
2021/06/23 13:14:15;;;;;;;16.08;7.60;;;21.60;99.90;;;;;;3571908;40;20234;-42
2021/06/23 13:16:43;;;;;;;12.02;6.85;;;21.20;99.90;;;;;;3574627;40;20237;-42
2021/06/23 13:19:11;;;;;;;10.25;6.80;;;21.10;99.90;;;;;;3566452;40;20255;-42
2021/06/23 13:21:39;;;;;;;12.88;8.18;;;21.20;99.90;;;;;;3550035;40;20245;-42
2021/06/23 13:24:40;;;;;;;13.95;7.22;;;21.60;99.90;;;;;;3584454;40;20465;-41
2021/06/23 13:27:09;;;;;;;9.07;7.20;;;21.20;99.90;;;;;;3546579;40;20260;-42
2021/06/23 13:29:36;;;;;;;13.50;8.27;;;21.50;99.90;;;;;;3550515;40;20256;-41
2021/06/23 13:32:07;;;;;;;13.27;6.68;;;21.30;99.90;;;;;;3550496;40;20249;-42
2021/06/23 13:34:34;;;;;;;10.48;7.15;;;21.50;99.90;;;;;;3550243;40;20496;-41
2021/06/23 13:37:03;;;;;;;8.00;6.20;;;21.40;99.90;;;;;;3551060;40;20551;-43
2021/06/23 13:39:31;;;;;;;9.68;6.82;;;21.00;99.90;;;;;;3550366;40;20256;-41
2021/06/23 13:41:58;;;;;;;10.68;8.82;;;20.60;99.90;;;;;;3550528;40;20281;-42
2021/06/23 13:44:26;;;;;;;10.48;7.05;;;21.00;99.90;;;;;;3551715;40;20353;-43
2021/06/23 13:46:53;;;;;;;12.95;8.02;;;21.00;99.90;;;;;;3547318;40;20329;-41
2021/06/23 13:49:20;;;;;;;13.77;8.70;;;21.50;99.90;;;;;;3547462;40;20330;-42
2021/06/23 13:51:47;;;;;;;9.45;7.38;;;22.00;99.90;;;;;;3547238;40;20322;-40
2021/06/23 13:54:16;;;;;;;13.27;9.13;;;22.00;99.90;;;;;;3559426;40;20719;-41
2021/06/23 13:56:43;;;;;;;10.77;8.27;;;21.60;99.90;;;;;;3558132;40;20612;-41
2021/06/23 13:59:10;;;;;;;12.73;7.85;;;20.80;99.90;;;;;;3549920;40;20614;-43
2021/06/23 14:01:37;;;;;;;15.27;8.18;;;20.90;99.90;;;;;;3550206;40;20245;-40
2021/06/23 14:04:05;;;;;;;12.27;8.38;;;21.30;99.90;;;;;;3550197;40;20620;-41
2021/06/23 14:06:32;;;;;;;14.07;7.72;;;21.30;99.90;;;;;;3550195;40;20253;-41
2021/06/23 14:08:59;;;;;;;11.48;7.57;;;21.30;99.90;;;;;;3563941;40;20237;-42
2021/06/23 14:11:28;;;;;;;11.57;7.90;;;21.40;99.90;;;;;;3570824;40;20265;-43
2021/06/23 14:13:55;;;;;;;10.38;9.02;;;21.40;99.90;;;;;;3549966;40;20334;-41
2021/06/23 14:16:22;;;;;;;13.85;8.55;;;21.50;99.90;;;;;;3549792;40;20241;-42
2021/06/23 14:18:49;;;;;;;11.73;7.95;;;21.20;99.90;;;;;;3548395;40;20616;-42
2021/06/23 14:21:16;;;;;;;14.63;9.32;;;21.10;99.90;;;;;;3539920;40;20282;-41
2021/06/23 14:23:43;;;;;;;12.07;7.97;;;21.00;99.90;;;;;;3540908;40;20253;-42
2021/06/23 14:26:10;;;;;;;13.85;8.98;;;21.00;99.90;;;;;;3547676;40;20249;-40
2021/06/23 14:28:38;;;;;;;10.23;8.15;;;21.00;99.90;;;;;;3560158;40;20244;-42
2021/06/23 14:31:06;;;;;;;12.55;8.73;;;21.20;99.90;;;;;;3556284;40;20300;-40
2021/06/23 14:33:33;;;;;;;11.02;8.02;;;21.50;99.90;;;;;;3549684;40;20261;-41
2021/06/23 14:36:01;;;;;;;11.13;7.10;;;21.90;99.90;;;;;;3549945;40;20241;-39
2021/06/23 14:38:29;;;;;;;11.75;6.80;;;21.70;99.90;;;;;;3549715;40;20245;-40
2021/06/23 14:40:56;;;;;;;13.70;8.95;;;22.00;99.90;;;;;;3549966;40;20253;-41
2021/06/23 14:43:23;;;;;;;10.48;8.93;;;22.30;99.90;;;;;;3550095;40;20238;-40
2021/06/23 14:45:51;;;;;;;10.07;8.05;;;22.60;99.90;;;;;;3549411;40;20260;-42
2021/06/23 14:48:18;;;;;;;40.92;35.83;;;21.40;99.90;;;;;;3550040;40;20245;-41
2021/06/23 14:50:45;;;;;;;11.93;7.80;;;21.20;99.90;;;;;;3549539;40;20249;-39
2021/06/23 14:53:13;;;;;;;11.65;8.30;;;21.50;99.90;;;;;;3548345;40;20257;-40
2021/06/23 14:55:52;;;;;;;14.00;8.73;;;22.30;99.90;;;;;;3551693;40;20311;-41
2021/06/23 14:58:19;;;;;;;13.27;8.63;;;22.20;99.90;;;;;;3605841;39;20895;-82
2021/06/23 15:00:46;;;;;;;11.23;8.30;;;22.60;99.90;;;;;;3601908;39;20234;-80
2021/06/23 15:03:14;;;;;;;10.68;8.25;;;22.80;99.90;;;;;;3602601;39;20246;-79
2021/06/23 15:05:41;;;;;;;14.45;8.57;;;22.70;99.90;;;;;;3611162;39;20234;-80
2021/06/23 15:08:08;;;;;;;11.60;9.15;;;22.70;99.90;;;;;;3612336;39;20250;-80
2021/06/23 15:10:35;;;;;;;16.58;10.32;;;23.60;99.90;;;;;;3611513;39;20656;-79
2021/06/23 15:13:03;;;;;;;16.58;10.02;;;23.70;99.90;;;;;;3611982;39;20705;-80
2021/06/23 15:15:30;;;;;;;20.05;9.07;;;23.40;99.90;;;;;;3611743;39;20279;-80
2021/06/23 15:17:58;;;;;;;14.10;8.52;;;22.90;99.90;;;;;;3613644;39;20241;-80
2021/06/23 15:20:27;;;;;;;12.65;8.30;;;23.50;99.90;;;;;;3611607;39;20237;-78
2021/06/23 15:22:54;;;;;;;15.90;8.27;;;23.20;99.90;;;;;;3619928;39;20257;-79
2021/06/23 15:27:55;;;;;;;9.32;7.25;;;23.20;99.90;;;;;;3570210;39;20217;-79
2021/06/23 15:30:23;;;;;;;12.57;8.55;;;23.60;99.90;;;;;;3569935;40;20297;-79
2021/06/23 15:32:50;;;;;;;17.23;9.13;;;22.40;99.90;;;;;;3569619;40;20301;-81
2021/06/23 15:35:17;;;;;;;7.80;6.40;;;22.60;99.90;;;;;;3570312;40;20236;-80
2021/06/23 15:37:46;;;;;;;10.50;8.02;;;22.50;99.90;;;;;;3562055;40;20844;-80
2021/06/23 15:40:14;;;;;;;11.40;8.40;;;22.80;99.90;;;;;;3570858;39;20256;-80
2021/06/23 15:42:42;;;;;;;11.02;7.22;;;22.80;99.90;;;;;;3570335;40;20677;-79
2021/06/23 15:45:11;;;;;;;10.02;6.53;;;22.90;99.90;;;;;;3570365;40;20268;-80
2021/06/23 15:47:38;;;;;;;12.15;7.68;;;23.30;99.90;;;;;;3569906;40;20232;-81
2021/06/23 15:50:07;;;;;;;10.05;7.57;;;24.10;99.90;;;;;;3570185;40;20284;-79
2021/06/23 15:52:34;;;;;;;11.05;6.63;;;25.30;99.90;;;;;;3570355;40;20289;-82
2021/06/23 15:55:03;;;;;;;7.55;6.65;;;25.80;99.90;;;;;;3570252;40;20221;-80
2021/06/23 15:57:30;;;;;;;13.38;9.95;;;26.10;99.90;;;;;;3570296;40;20244;-82
2021/06/23 15:59:57;;;;;;;14.75;8.85;;;26.30;99.90;;;;;;3570113;40;20244;-79
2021/06/23 16:02:24;;;;;;;9.55;6.43;;;25.70;99.90;;;;;;3570194;40;20798;-81
2021/06/23 16:04:51;;;;;;;10.38;6.07;;;25.40;99.90;;;;;;3570225;40;20260;-79
2021/06/23 16:07:18;;;;;;;14.55;8.07;;;25.10;99.90;;;;;;3570228;40;20776;-81
2021/06/23 16:09:46;;;;;;;10.65;6.53;;;25.00;99.90;;;;;;3570142;40;20669;-79
2021/06/23 16:12:14;;;;;;;9.57;7.40;;;24.40;99.90;;;;;;3570363;40;20236;-79
2021/06/23 16:14:41;;;;;;;15.75;7.22;;;24.00;99.90;;;;;;3571644;40;20248;-80
2021/06/23 16:17:08;;;;;;;11.57;7.78;;;23.60;99.90;;;;;;3571672;40;20217;-79
2021/06/23 16:19:35;;;;;;;11.77;7.38;;;23.50;99.90;;;;;;3571468;40;20744;-82
2021/06/23 16:22:03;;;;;;;12.18;7.30;;;23.50;99.90;;;;;;3571601;40;20840;-79
2021/06/23 16:24:33;;;;;;;7.65;6.22;;;23.20;99.90;;;;;;3563029;40;20267;-79
2021/06/23 16:27:00;;;;;;;8.70;7.43;;;23.10;99.90;;;;;;3562816;40;20907;-78
2021/06/23 16:29:28;;;;;;;8.82;6.65;;;23.00;99.90;;;;;;3571405;40;20224;-80
2021/06/23 16:31:56;;;;;;;12.63;8.88;;;22.90;99.90;;;;;;3571584;40;20237;-78
2021/06/23 16:34:23;;;;;;;9.20;8.30;;;22.90;99.90;;;;;;3571366;40;20865;-79
2021/06/23 16:36:50;;;;;;;11.00;7.93;;;22.70;99.90;;;;;;3563100;40;20290;-82
2021/06/23 16:39:17;;;;;;;12.20;9.00;;;22.30;99.90;;;;;;3571387;40;20245;-82
2021/06/23 16:41:44;;;;;;;7.78;6.80;;;22.60;99.90;;;;;;3571446;40;20244;-79
2021/06/23 16:44:12;;;;;;;19.45;13.38;;;22.00;99.90;;;;;;3571335;40;20809;-78
2021/06/23 16:46:41;;;;;;;13.48;11.70;;;22.10;99.90;;;;;;3571610;40;20237;-78
2021/06/23 16:49:09;;;;;;;11.15;10.10;;;22.40;99.90;;;;;;3571300;40;20798;-79
2021/06/23 16:51:38;;;;;;;11.40;10.23;;;22.20;99.90;;;;;;3580595;39;20228;-83
2021/06/23 16:54:06;;;;;;;8.48;7.68;;;21.90;99.90;;;;;;3581369;39;20240;-80
2021/06/23 16:56:33;;;;;;;9.93;8.93;;;21.90;99.90;;;;;;3581225;39;20244;-80
2021/06/23 16:59:00;;;;;;;9.25;8.45;;;21.50;99.90;;;;;;3581266;39;20832;-79
2021/06/23 17:01:27;;;;;;;11.45;9.35;;;21.60;99.90;;;;;;3581406;39;20240;-80
2021/06/23 17:03:56;;;;;;;9.38;8.15;;;21.20;99.90;;;;;;3572664;39;20251;-80
2021/06/23 17:06:23;;;;;;;9.32;8.20;;;21.00;99.90;;;;;;3581342;39;20682;-79
2021/06/23 17:08:50;;;;;;;9.75;8.95;;;21.10;99.90;;;;;;3581697;39;20239;-81
2021/06/23 17:11:19;;;;;;;9.65;8.68;;;21.00;99.90;;;;;;3581102;39;20690;-80
2021/06/23 17:13:50;;;;;;;10.73;9.52;;;20.90;99.90;;;;;;3581507;39;20289;-79
2021/06/23 17:16:19;;;;;;;9.77;8.90;;;21.00;99.90;;;;;;3581236;39;20235;-80
2021/06/23 17:18:46;;;;;;;9.88;8.98;;;21.60;99.90;;;;;;3572278;39;20247;-80
2021/06/23 17:21:15;;;;;;;12.73;10.40;;;21.50;99.90;;;;;;3572547;39;20277;-80
2021/06/23 17:23:42;;;;;;;13.63;12.27;;;21.70;99.90;;;;;;3580732;39;20276;-80
2021/06/23 17:26:10;;;;;;;15.32;11.63;;;22.10;99.90;;;;;;3581000;39;20693;-79
2021/06/23 17:28:37;;;;;;;10.25;9.15;;;22.20;99.90;;;;;;3581159;39;20227;-78
2021/06/23 17:31:04;;;;;;;10.25;9.27;;;22.10;99.90;;;;;;3581016;39;20288;-81
2021/06/23 17:33:32;;;;;;;10.30;8.85;;;22.00;99.90;;;;;;3581622;39;20231;-80
2021/06/23 17:35:59;;;;;;;10.48;8.38;;;22.10;99.90;;;;;;3580564;39;20236;-85
2021/06/23 17:38:28;;;;;;;8.73;7.93;;;22.10;99.90;;;;;;3580953;39;20228;-80
2021/06/23 17:40:55;;;;;;;8.88;8.10;;;22.10;99.90;;;;;;3580119;39;20224;-80
2021/06/23 17:43:26;;;;;;;10.30;7.20;;;22.20;99.90;;;;;;3579625;39;20256;-80
2021/06/23 17:45:54;;;;;;;7.07;6.32;;;21.90;99.90;;;;;;3574680;39;20228;-80
2021/06/23 17:48:21;;;;;;;6.85;6.25;;;22.10;99.90;;;;;;3578940;39;20252;-79
2021/06/23 17:50:48;;;;;;;5.93;5.40;;;22.30;99.90;;;;;;3570719;39;20237;-81
2021/06/23 17:53:18;;;;;;;7.57;6.13;;;22.30;99.90;;;;;;3578561;39;20239;-78
2021/06/23 17:55:47;;;;;;;8.18;5.68;;;22.20;99.90;;;;;;3577307;39;20248;-79
2021/06/23 17:58:15;;;;;;;8.02;5.93;;;22.00;99.90;;;;;;3574571;39;20239;-80
2021/06/23 18:00:43;;;;;;;6.55;5.32;;;21.80;99.90;;;;;;3574494;39;20251;-81
2021/06/23 18:03:11;;;;;;;8.95;5.28;;;21.90;99.90;;;;;;3575201;39;20243;-80
2021/06/23 18:05:38;;;;;;;6.72;4.65;;;21.80;99.90;;;;;;3576444;39;20293;-80
2021/06/23 18:08:06;;;;;;;6.40;5.13;;;21.90;99.90;;;;;;3575617;39;20240;-79
2021/06/23 18:10:34;;;;;;;4.93;4.45;;;21.90;99.90;;;;;;3576558;39;20232;-79
2021/06/23 18:13:03;;;;;;;5.93;4.22;;;21.80;99.90;;;;;;3575623;39;20243;-79
2021/06/23 18:15:30;;;;;;;6.15;4.10;;;21.90;99.90;;;;;;3577765;39;20259;-80
2021/06/23 18:17:57;;;;;;;7.00;5.47;;;21.80;99.90;;;;;;3575660;39;20236;-79
2021/06/23 18:20:27;;;;;;;37.28;32.03;;;21.80;99.90;;;;;;3576098;39;20280;-80
2021/06/23 18:22:54;;;;;;;8.18;4.97;;;22.00;99.90;;;;;;3575533;39;20742;-82
2021/06/23 18:25:21;;;;;;;6.10;4.32;;;21.80;99.90;;;;;;3575189;39;20288;-78
2021/06/23 18:27:48;;;;;;;4.72;3.90;;;21.70;99.90;;;;;;3575376;39;20238;-80
2021/06/23 18:30:19;;;;;;;5.00;3.88;;;21.70;99.90;;;;;;3572418;39;20221;-79
2021/06/23 18:32:46;;;;;;;7.63;4.18;;;21.80;99.90;;;;;;3572296;39;20725;-78